Time;durP1;ratioP1;P1;durP2;ratioP2;P2;SDS_P1;SDS_P2;PMS_P1;PMS_P2;Temp;Humidity;BMP_temperature;BMP_pressure;BME280_temperature;BME280_humidity;BME280_pressure;Samples;Min_cycle;Max_cycle;Signal;HPM_P1;HPM_P2
2021/10/06 03:16:17;;;;;;;;;;;;;;;8.31;100.00;99515.41;5262158;23;20428;-83
2021/10/06 03:18:42;;;;;;;;;;;;;;;8.32;100.00;99517.13;4945947;29;19926;-83
2021/10/06 03:21:08;;;;;;;;;;;;;;;8.34;100.00;99520.56;4952320;28;19973;-83
2021/10/06 03:23:33;;;;;;;;;;;;;;;8.37;100.00;99525.72;4947442;29;19926;-83
2021/10/06 03:25:58;;;;;;;;;;;;;;;8.42;100.00;99531.69;4953394;28;19966;-82
2021/10/06 03:28:23;;;;;;;;;;;;;;;8.42;100.00;99536.97;4953648;28;19933;-82
2021/10/06 03:30:49;;;;;;;;;;;;;;;8.53;100.00;99534.81;4951019;29;19918;-82
2021/10/06 03:33:14;;;;;;;;;;;;;;;8.64;100.00;99533.53;4953672;28;19928;-82
2021/10/06 03:35:39;;;;;;;;;;;;;;;8.67;100.00;99536.06;4953680;28;19918;-82
2021/10/06 03:38:05;;;;;;;;;;;;;;;8.66;100.00;99545.78;4953522;28;19922;-82
2021/10/06 03:40:30;;;;;;;;;;;;;;;8.68;100.00;99532.50;4953528;28;20358;-82
2021/10/06 03:42:55;;;;;;;;;;;;;;;8.66;100.00;99540.50;4953504;28;19918;-83
2021/10/06 03:45:21;;;;;;;;;;;;;;;8.71;100.00;99540.28;4952337;28;20447;-83
2021/10/06 03:47:46;;;;;;;;;;;;;;;8.71;100.00;99545.56;4955898;28;19974;-82
2021/10/06 03:50:12;;;;;;;;;;;;;;;8.80;100.00;99539.94;4957026;28;19922;-83
2021/10/06 03:52:38;;;;;;;;;;;;;;;7.57;100.00;99549.72;4956862;29;19925;-83
2021/10/06 03:55:03;;;;;;;;;;;;;;;6.47;100.00;99555.81;4956808;28;20393;-84
2021/10/06 03:57:29;;;;;;;;;;;;;;;6.07;100.00;99553.50;4956686;29;20378;-83
2021/10/06 03:59:54;;;;;;;;;;;;;;;5.71;100.00;99566.69;4955527;28;19926;-84
2021/10/06 04:02:19;;;;;;;;;;;;;;;5.48;100.00;99557.66;4956753;28;20005;-83
2021/10/06 04:04:45;;;;;;;;;;;;;;;5.33;100.00;99566.78;4956770;28;19925;-84
2021/10/06 04:07:10;;;;;;;;;;;;;;;5.39;100.00;99571.00;4956703;28;19977;-84
2021/10/06 04:09:35;;;;;;;;;;;;;;;5.62;100.00;99576.56;4956613;28;20380;-85
2021/10/06 04:12:00;;;;;;;;;;;;;;;5.66;100.00;99573.84;4956691;28;19918;-84
2021/10/06 04:14:25;;;;;;;;;;;;;;;5.28;100.00;99572.16;4956183;28;20002;-85
2021/10/06 04:16:51;;;;;;;;;;;;;;;5.21;100.00;99575.81;4954584;28;19930;-84
2021/10/06 04:19:16;;;;;;;;;;;;;;;5.16;100.00;99576.84;4956401;28;19918;-84
2021/10/06 04:21:41;;;;;;;;;;;;;;;5.03;100.00;99582.38;4956447;28;19918;-84
2021/10/06 04:24:06;;;;;;;;;;;;;;;5.01;100.00;99581.56;4954953;28;19925;-84
2021/10/06 04:26:32;;;;;;;;;;;;;;;4.83;100.00;99580.22;4956361;28;19966;-84
2021/10/06 04:28:57;;;;;;;;;;;;;;;4.80;100.00;99579.41;4956262;28;20374;-84
2021/10/06 04:31:22;;;;;;;;;;;;;;;4.70;100.00;99576.13;4955032;28;19941;-85
2021/10/06 04:33:48;;;;;;;;;;;;;;;4.57;100.00;99580.78;4956191;28;20077;-84
2021/10/06 04:36:13;;;;;;;;;;;;;;;4.55;100.00;99575.56;4956116;28;19918;-83
2021/10/06 04:38:39;;;;;;;;;;;;;;;4.47;100.00;99585.38;4956105;28;20381;-83
2021/10/06 04:41:04;;;;;;;;;;;;;;;4.47;100.00;99589.78;4955869;28;20366;-84
2021/10/06 04:43:29;;;;;;;;;;;;;;;4.34;100.00;99586.50;4955962;28;20437;-84
2021/10/06 04:45:54;;;;;;;;;;;;;;;4.31;100.00;99582.22;4937492;29;19914;-83
2021/10/06 04:48:20;;;;;;;;;;;;;;;4.31;100.00;99592.69;4956010;28;19993;-84
2021/10/06 04:50:45;;;;;;;;;;;;;;;4.26;100.00;99588.44;4954766;29;19965;-84
2021/10/06 04:53:11;;;;;;;;;;;;;;;4.07;100.00;99586.19;4955058;28;19919;-83
2021/10/06 07:59:38;;;;;;;;;;;;;;;2.47;97.13;99764.00;5427615;23;19926;-83
2021/10/06 08:02:03;;;;;;;;;;;;;;;2.45;96.56;99756.16;4984432;28;20013;-82
2021/10/06 08:04:29;;;;;;;;;;;;;;;2.39;96.79;99761.47;4984581;28;20334;-82
2021/10/06 08:06:54;;;;;;;;;;;;;;;2.38;96.90;99771.94;4981809;28;19929;-83
2021/10/06 08:09:20;;;;;;;;;;;;;;;2.46;96.88;99764.91;4983183;28;19922;-82
2021/10/06 08:11:46;;;;;;;;;;;;;;;2.38;96.83;99762.38;4984369;28;19929;-82
2021/10/06 08:14:11;;;;;;;;;;;;;;;2.43;97.63;99762.31;4983605;28;19984;-83
2021/10/06 08:16:36;;;;;;;;;;;;;;;2.49;97.99;99762.22;4985361;28;19918;-82
2021/10/06 08:19:02;;;;;;;;;;;;;;;2.42;98.08;99765.81;4985273;28;20295;-82
2021/10/06 08:21:27;;;;;;;;;;;;;;;2.48;98.32;99770.97;4984991;28;20387;-82
2021/10/06 08:23:52;;;;;;;;;;;;;;;2.53;98.67;99759.56;4985060;28;20039;-82
2021/10/06 08:26:18;;;;;;;;;;;;;;;2.47;98.36;99764.91;4985251;28;19918;-82
2021/10/06 08:28:43;;;;;;;;;;;;;;;2.51;98.03;99757.88;4983790;28;20467;-82
2021/10/06 08:31:08;;;;;;;;;;;;;;;2.55;98.15;99772.63;4984008;28;20001;-82
2021/10/06 08:33:34;;;;;;;;;;;;;;;2.58;98.19;99775.22;4983419;28;19928;-83
2021/10/06 08:35:59;;;;;;;;;;;;;;;2.54;97.98;99773.53;4984820;28;20586;-83
2021/10/06 08:38:24;;;;;;;;;;;;;;;2.59;97.71;99784.81;4985096;28;19928;-82
2021/10/06 08:40:50;;;;;;;;;;;;;;;2.58;98.15;99788.31;4983830;28;20270;-82
2021/10/06 08:43:15;;;;;;;;;;;;;;;2.50;97.84;99784.91;4982533;28;19929;-82
2021/10/06 08:45:41;;;;;;;;;;;;;;;2.58;98.04;99787.44;4983461;28;20016;-83
2021/10/06 08:48:07;;;;;;;;;;;;;;;2.60;98.13;99791.78;4981521;28;19973;-82
2021/10/06 08:50:33;;;;;;;;;;;;;;;2.50;97.73;99796.22;4998690;28;20297;-82
2021/10/06 08:52:58;;;;;;;;;;;;;;;2.58;97.51;99801.38;4984167;28;19922;-82
2021/10/06 08:55:28;;;;;;;;;;;;;;;2.58;97.39;99801.38;4983372;28;19922;-82
2021/10/06 08:57:57;;;;;;;;;;;;;;;2.58;97.15;99798.75;4981532;28;19930;-82
2021/10/06 09:00:22;;;;;;;;;;;;;;;2.53;97.66;99796.19;4980175;28;19929;-82
2021/10/06 09:02:47;;;;;;;;;;;;;;;2.55;97.86;99790.94;4984530;28;19926;-82
2021/10/06 09:05:13;;;;;;;;;;;;;;;2.69;98.18;99798.66;4982709;28;19922;-82
2021/10/06 09:07:56;;;;;;;;;;;;;;;2.58;97.35;99796.16;4984330;28;19926;-83
2021/10/06 09:10:22;;;;;;;;;;;;;;;2.50;97.54;99793.59;4984400;28;20373;-82
2021/10/06 09:13:04;;;;;;;;;;;;;;;2.53;97.97;99792.72;4965339;28;19934;-83
2021/10/06 09:15:40;;;;;;;;;;;;;;;2.56;97.95;99790.06;4964037;28;20390;-83
2021/10/06 09:18:09;;;;;;;;;;;;;;;2.60;97.41;99785.66;4964943;28;20452;-83
2021/10/06 09:20:36;;;;;;;;;;;;;;;2.59;96.87;99790.03;4963185;28;19918;-83
2021/10/06 09:23:05;;;;;;;;;;;;;;;2.50;97.40;99796.22;4961345;28;20370;-82
2021/10/06 09:25:36;;;;;;;;;;;;;;;2.58;97.58;99788.31;4963135;28;20001;-82
2021/10/06 09:28:04;;;;;;;;;;;;;;;2.51;96.94;99799.72;4963523;28;20005;-83
2021/10/06 09:30:30;;;;;;;;;;;;;;;2.55;97.02;99798.78;4963495;28;19969;-83
2021/10/06 09:32:57;;;;;;;;;;;;;;;2.60;97.28;99788.28;4964365;28;19918;-83
2021/10/06 09:35:25;;;;;;;;;;;;;;;2.55;96.79;99793.56;4978515;28;19928;-83
2021/10/06 09:37:54;;;;;;;;;;;;;;;2.61;96.79;99795.25;4965891;28;19919;-83
2021/10/06 09:40:22;;;;;;;;;;;;;;;2.55;96.13;99798.78;4962957;28;19926;-83
2021/10/06 09:42:53;;;;;;;;;;;;;;;2.51;95.94;99807.56;4964184;28;20397;-83
2021/10/06 09:45:24;;;;;;;;;;;;;;;2.61;96.32;99816.19;4961969;28;19930;-84
2021/10/06 09:48:00;;;;;;;;;;;;;;;2.71;96.36;99821.31;4963000;28;19922;-83
2021/10/06 09:50:25;;;;;;;;;;;;;;;2.71;96.79;99820.44;4964660;28;19918;-83
2021/10/06 09:52:52;;;;;;;;;;;;;;;2.83;96.53;99819.47;4962746;28;19941;-83
2021/10/06 09:55:18;;;;;;;;;;;;;;;2.80;96.03;99824.72;4964050;28;19972;-83
2021/10/06 09:57:44;;;;;;;;;;;;;;;2.79;96.12;99822.97;4979117;28;19919;-83
2021/10/06 10:00:21;;;;;;;;;;;;;;;3.01;96.28;99826.22;4976609;28;19933;-83
2021/10/06 10:02:47;;;;;;;;;;;;;;;2.85;94.97;99822.91;4962913;28;20345;-83
2021/10/06 10:05:13;;;;;;;;;;;;;;;3.00;96.51;99825.38;4959878;28;20009;-83
2021/10/06 10:07:38;;;;;;;;;;;;;;;3.04;95.88;99834.91;4962967;28;20325;-83
2021/10/06 10:10:05;;;;;;;;;;;;;;;2.81;93.66;99831.69;4963782;28;19981;-83
2021/10/06 10:12:30;;;;;;;;;;;;;;;2.81;93.55;99840.41;4964253;28;19918;-84
2021/10/06 10:14:56;;;;;;;;;;;;;;;2.85;93.69;99843.84;4962430;28;19929;-84
2021/10/06 10:17:21;;;;;;;;;;;;;;;2.94;93.39;99848.16;4960354;28;20008;-83
2021/10/06 10:19:57;;;;;;;;;;;;;;;2.87;92.62;99842.09;4977870;28;19961;-84
2021/10/06 10:22:25;;;;;;;;;;;;;;;2.99;94.02;99849.81;4962600;28;19969;-83
2021/10/06 10:24:52;;;;;;;;;;;;;;;3.02;93.41;99860.25;4960009;28;20178;-83
2021/10/06 10:27:18;;;;;;;;;;;;;;;3.14;93.85;99861.00;4962625;28;19918;-83
2021/10/06 10:29:56;;;;;;;;;;;;;;;3.07;93.07;99858.44;4961390;28;19918;-83
2021/10/06 10:32:22;;;;;;;;;;;;;;;3.03;92.40;99859.38;4964123;28;20373;-83
2021/10/06 10:35:04;;;;;;;;;;;;;;;3.06;92.16;99853.22;4962028;28;19950;-83
2021/10/06 10:37:45;;;;;;;;;;;;;;;3.16;92.48;99857.50;4962154;28;19919;-83
2021/10/06 10:40:29;;;;;;;;;;;;;;;3.20;92.38;99859.16;4962138;28;19918;-83
2021/10/06 10:42:55;;;;;;;;;;;;;;;3.30;93.29;99873.03;4961979;28;19922;-83
2021/10/06 10:45:33;;;;;;;;;;;;;;;3.16;91.70;99861.84;4960866;28;19919;-83
2021/10/06 10:47:59;;;;;;;;;;;;;;;3.15;91.00;99862.75;4963497;28;19976;-84
2021/10/06 10:50:35;;;;;;;;;;;;;;;3.22;90.47;99853.91;4963582;28;20012;-83
2021/10/06 10:53:02;;;;;;;;;;;;;;;3.29;92.04;99855.59;4963806;28;19937;-83
2021/10/06 10:55:43;;;;;;;;;;;;;;;3.25;90.67;99851.25;4961867;28;20298;-83
2021/10/06 10:58:30;;;;;;;;;;;;;;;3.34;91.97;99851.16;4960541;28;19919;-82
2021/10/06 11:00:59;;;;;;;;;;;;;;;3.39;90.41;99851.97;4963018;28;19926;-83
2021/10/06 11:03:25;;;;;;;;;;;;;;;3.44;91.98;99850.13;4960889;28;19926;-83
2021/10/06 11:05:52;;;;;;;;;;;;;;;3.34;89.42;99858.16;4963649;28;19981;-83
2021/10/06 11:08:28;;;;;;;;;;;;;;;3.32;89.42;99858.19;4963990;28;19923;-83
2021/10/06 11:11:05;;;;;;;;;;;;;;;3.34;88.48;99858.16;4961850;28;20265;-83
2021/10/06 11:13:44;;;;;;;;;;;;;;;3.39;89.22;99856.34;4960958;28;19922;-83
2021/10/06 11:16:10;;;;;;;;;;;;;;;3.41;90.07;99852.81;4962048;28;19973;-83
2021/10/06 11:18:40;;;;;;;;;;;;;;;3.39;90.61;99859.81;4962227;28;20472;-83
2021/10/06 11:21:06;;;;;;;;;;;;;;;3.46;91.12;99860.59;4961581;28;19922;-83
2021/10/06 11:23:31;;;;;;;;;;;;;;;3.51;90.65;99865.78;4961123;28;19949;-83
2021/10/06 11:26:02;;;;;;;;;;;;;;;3.45;89.61;99857.13;4963304;28;20359;-83
2021/10/06 11:28:28;;;;;;;;;;;;;;;3.42;89.23;99854.53;4961001;28;20356;-82
2021/10/06 11:30:55;;;;;;;;;;;;;;;3.51;90.29;99855.31;4961472;28;20346;-83
2021/10/06 11:33:27;;;;;;;;;;;;;;;3.57;90.20;99860.47;4963128;28;19950;-83
2021/10/06 11:36:03;;;;;;;;;;;;;;;3.57;89.39;99865.72;4964457;28;19922;-83
2021/10/06 11:38:29;;;;;;;;;;;;;;;3.63;88.63;99858.63;4963437;28;19923;-83
2021/10/06 11:40:54;;;;;;;;;;;;;;;3.62;88.84;99864.78;4962614;28;19922;-83
2021/10/06 11:43:19;;;;;;;;;;;;;;;3.60;88.53;99860.44;4961016;28;19926;-83
2021/10/06 11:45:47;;;;;;;;;;;;;;;3.66;89.27;99860.34;4960681;28;20386;-82
2021/10/06 11:48:12;;;;;;;;;;;;;;;3.71;88.67;99861.16;4962134;28;19918;-83
2021/10/06 11:50:38;;;;;;;;;;;;;;;3.71;88.35;99858.53;4962131;28;20391;-83
2021/10/06 11:53:04;;;;;;;;;;;;;;;3.77;88.12;99857.59;4962019;28;20001;-83
2021/10/06 11:55:29;;;;;;;;;;;;;;;3.81;87.87;99865.41;4961693;28;20018;-82
2021/10/06 11:57:54;;;;;;;;;;;;;;;3.86;88.78;99867.97;4962245;28;19918;-83
2021/10/06 12:00:20;;;;;;;;;;;;;;;3.89;87.79;99872.28;4960790;28;19929;-83
2021/10/06 12:02:45;;;;;;;;;;;;;;;3.79;86.68;99879.41;4960482;28;20035;-83
2021/10/06 12:05:11;;;;;;;;;;;;;;;4.03;90.08;99896.53;4961692;28;20041;-83
2021/10/06 12:07:37;;;;;;;;;;;;;;;3.87;88.07;99905.50;4962879;28;19957;-82
2021/10/06 12:10:09;;;;;;;;;;;;;;;3.82;86.45;99909.06;4965620;28;20005;-83
2021/10/06 12:12:39;;;;;;;;;;;;;;;3.88;87.52;99902.00;4965440;28;20032;-83
2021/10/06 12:15:08;;;;;;;;;;;;;;;3.90;85.83;99906.34;4962883;28;19925;-83
2021/10/06 12:17:35;;;;;;;;;;;;;;;3.89;86.93;99901.97;4965370;28;19918;-83
2021/10/06 12:20:07;;;;;;;;;;;;;;;3.94;88.54;99912.41;4964828;28;19925;-83
2021/10/06 12:22:35;;;;;;;;;;;;;;;3.95;85.76;99907.13;4964996;28;19918;-83
2021/10/06 12:25:03;;;;;;;;;;;;;;;3.94;85.41;99901.91;4964951;28;19923;-83
2021/10/06 12:27:30;;;;;;;;;;;;;;;3.98;86.07;99909.72;4965563;28;19957;-83
2021/10/06 12:30:09;;;;;;;;;;;;;;;3.98;85.44;99908.84;4963772;28;19925;-83
2021/10/06 12:32:35;;;;;;;;;;;;;;;4.09;87.20;99909.56;4963970;28;19918;-83
2021/10/06 12:35:08;;;;;;;;;;;;;;;4.11;85.77;99907.78;4964967;28;19992;-83
2021/10/06 12:37:33;;;;;;;;;;;;;;;4.28;84.77;99918.03;4965041;28;19919;-83
2021/10/06 12:39:58;;;;;;;;;;;;;;;4.33;84.28;99920.59;4965256;28;19918;-83
2021/10/06 12:42:24;;;;;;;;;;;;;;;4.26;83.03;99916.31;4965008;28;19966;-83
2021/10/06 12:44:50;;;;;;;;;;;;;;;4.25;83.95;99906.72;4963218;28;19968;-83
2021/10/06 12:47:16;;;;;;;;;;;;;;;4.27;83.03;99910.19;4963449;28;20457;-83
2021/10/06 12:49:49;;;;;;;;;;;;;;;4.36;84.00;99915.31;4965215;28;19930;-83
2021/10/06 12:52:28;;;;;;;;;;;;;;;4.35;87.15;99903.91;4964647;28;19946;-83
2021/10/06 12:55:07;;;;;;;;;;;;;;;4.29;90.63;99911.03;4964351;28;20029;-83
2021/10/06 12:57:32;;;;;;;;;;;;;;;3.96;92.80;99905.41;4964954;28;20397;-83
2021/10/06 12:59:58;;;;;;;;;;;;;;;4.11;97.24;99907.78;4963446;28;19922;-83
2021/10/06 13:02:23;;;;;;;;;;;;;;;3.85;96.45;99909.91;4964433;28;19961;-83
2021/10/06 13:04:50;;;;;;;;;;;;;;;3.70;98.08;99909.25;4963757;28;19922;-83
2021/10/06 13:07:16;;;;;;;;;;;;;;;3.70;99.62;99903.09;4962981;28;19926;-83
2021/10/06 13:09:43;;;;;;;;;;;;;;;3.77;100.00;99910.88;4965192;28;19925;-83
2021/10/06 13:12:08;;;;;;;;;;;;;;;3.96;100.00;99910.63;4979060;28;19919;-83
2021/10/06 13:14:34;;;;;;;;;;;;;;;4.24;100.00;99918.09;4962900;28;19952;-83
2021/10/06 13:16:59;;;;;;;;;;;;;;;4.48;100.00;99912.50;4964296;28;19922;-83
2021/10/06 13:19:24;;;;;;;;;;;;;;;4.70;100.00;99909.50;4964089;28;19949;-83
2021/10/06 13:21:52;;;;;;;;;;;;;;;4.77;100.00;99908.53;4964073;28;20009;-83
2021/10/06 13:24:17;;;;;;;;;;;;;;;4.94;100.00;99908.19;4963980;28;19928;-83
2021/10/06 13:26:47;;;;;;;;;;;;;;;5.21;100.00;99906.81;4964406;28;20352;-83
2021/10/06 13:29:17;;;;;;;;;;;;;;;5.44;100.00;99908.13;4962871;28;20438;-83
2021/10/06 13:31:42;;;;;;;;;;;;;;;5.68;100.00;99911.16;4963741;28;19988;-83
2021/10/06 13:34:08;;;;;;;;;;;;;;;5.93;100.00;99914.16;4963742;28;19953;-83
2021/10/06 13:36:33;;;;;;;;;;;;;;;5.98;100.00;99921.09;4964224;28;19973;-83
2021/10/06 13:38:58;;;;;;;;;;;;;;;6.17;100.00;99921.53;4963955;28;19922;-83
2021/10/06 13:41:24;;;;;;;;;;;;;;;6.29;100.00;99909.84;4963361;28;20005;-83
2021/10/06 13:43:50;;;;;;;;;;;;;;;6.40;100.00;99920.13;4962367;28;19957;-83
2021/10/06 13:46:18;;;;;;;;;;;;;;;6.47;100.00;99926.13;4964101;28;19976;-83
2021/10/06 13:48:44;;;;;;;;;;;;;;;6.47;100.00;99926.13;4963483;28;20371;-83
2021/10/06 13:51:09;;;;;;;;;;;;;;;6.56;100.00;99910.13;4963330;28;19926;-82
2021/10/06 13:53:35;;;;;;;;;;;;;;;6.66;100.00;99916.00;4963327;28;19918;-82
2021/10/06 13:56:00;;;;;;;;;;;;;;;6.72;100.00;99926.41;4963103;28;19929;-82
2021/10/06 13:58:26;;;;;;;;;;;;;;;6.76;100.00;99921.91;4962565;28;19918;-83
2021/10/06 14:00:52;;;;;;;;;;;;;;;6.84;100.00;99928.69;4963381;28;19926;-82
2021/10/06 14:03:18;;;;;;;;;;;;;;;6.92;100.00;99928.50;4963526;28;19976;-83
2021/10/06 14:05:43;;;;;;;;;;;;;;;6.89;100.00;99931.22;4963497;28;19918;-83
2021/10/06 14:08:08;;;;;;;;;;;;;;;6.92;100.00;99931.16;4962084;28;19926;-83
2021/10/06 14:10:35;;;;;;;;;;;;;;;6.98;100.00;99938.03;4963143;28;20404;-82
2021/10/06 14:13:00;;;;;;;;;;;;;;;7.05;100.00;99948.38;4962829;28;19922;-82
2021/10/06 14:15:26;;;;;;;;;;;;;;;7.09;100.00;99939.47;4961738;28;19919;-83
2021/10/06 14:17:55;;;;;;;;;;;;;;;7.09;100.00;99946.53;4963090;28;20278;-83
2021/10/06 14:20:20;;;;;;;;;;;;;;;7.11;100.00;99952.63;4962933;28;19925;-83
2021/10/06 14:22:46;;;;;;;;;;;;;;;7.14;100.00;99954.31;4963427;28;19922;-83
2021/10/06 14:25:12;;;;;;;;;;;;;;;6.71;100.00;99951.84;4963116;28;20037;-83
2021/10/06 14:27:37;;;;;;;;;;;;;;;5.39;100.00;99957.28;4961579;28;19918;-83
2021/10/06 14:30:03;;;;;;;;;;;;;;;4.62;100.00;99970.00;4961713;28;20044;-83
2021/10/06 14:32:28;;;;;;;;;;;;;;;4.27;100.00;99965.28;4963165;28;20271;-83
2021/10/06 14:34:53;;;;;;;;;;;;;;;4.03;100.00;99963.84;4962942;28;20001;-83
2021/10/06 14:37:19;;;;;;;;;;;;;;;3.89;100.00;99975.38;4962728;28;19926;-83
2021/10/06 14:39:44;;;;;;;;;;;;;;;3.74;100.00;99973.81;4962665;28;19922;-83
2021/10/06 14:42:09;;;;;;;;;;;;;;;3.66;100.00;99970.44;4963220;28;20358;-83
2021/10/06 14:44:34;;;;;;;;;;;;;;;3.57;100.00;99970.53;4961453;28;19918;-83
2021/10/06 14:47:00;;;;;;;;;;;;;;;3.53;100.00;99967.06;4962579;28;20485;-83
2021/10/06 14:49:26;;;;;;;;;;;;;;;3.54;100.00;99975.78;4962603;28;19977;-82
2021/10/06 14:51:52;;;;;;;;;;;;;;;3.45;100.00;99982.88;4962947;28;19926;-82
2021/10/06 14:54:17;;;;;;;;;;;;;;;3.39;100.00;99985.56;4962485;28;19918;-82
2021/10/06 14:56:43;;;;;;;;;;;;;;;3.37;100.00;99981.25;4962411;28;19950;-82
2021/10/06 14:59:08;;;;;;;;;;;;;;;3.33;100.00;99983.00;4961769;28;20354;-82
2021/10/06 15:01:33;;;;;;;;;;;;;;;3.28;100.00;99992.66;4962659;28;20421;-82
2021/10/06 15:03:59;;;;;;;;;;;;;;;3.23;100.00;99992.69;4962504;28;19918;-82
2021/10/06 15:06:24;;;;;;;;;;;;;;;3.05;100.00;99988.50;4962234;28;19928;-82
2021/10/06 15:08:49;;;;;;;;;;;;;;;3.11;100.00;99991.94;4962886;28;19953;-82
2021/10/06 15:11:15;;;;;;;;;;;;;;;3.05;100.00;99987.66;4961374;28;19928;-82
2021/10/06 15:13:41;;;;;;;;;;;;;;;3.08;100.00;99998.09;4960944;28;19957;-82
2021/10/06 15:16:06;;;;;;;;;;;;;;;3.05;100.00;100003.38;4962349;28;20386;-82
2021/10/06 15:18:31;;;;;;;;;;;;;;;3.00;100.00;99999.88;4962721;28;19965;-82
2021/10/06 15:20:56;;;;;;;;;;;;;;;2.96;100.00;100006.06;4962469;28;19919;-82
2021/10/06 15:23:22;;;;;;;;;;;;;;;2.98;100.00;100005.13;4961968;28;19980;-82
2021/10/06 15:25:47;;;;;;;;;;;;;;;2.96;100.00;100006.06;4962531;28;20033;-82
2021/10/06 15:28:12;;;;;;;;;;;;;;;2.95;100.00;100002.53;4960704;28;19919;-82
2021/10/06 15:30:38;;;;;;;;;;;;;;;2.94;100.00;100003.44;4961930;28;19925;-82
2021/10/06 15:33:04;;;;;;;;;;;;;;;2.92;100.00;100002.59;4962143;28;19925;-82
2021/10/06 15:35:29;;;;;;;;;;;;;;;2.86;100.00;100002.63;4962414;28;19941;-82
2021/10/06 15:37:55;;;;;;;;;;;;;;;2.80;100.00;100010.53;4960931;28;20377;-82
2021/10/06 15:40:20;;;;;;;;;;;;;;;2.75;99.90;100005.34;4962430;28;19925;-82
2021/10/06 15:42:49;;;;;;;;;;;;;;;2.86;99.67;100015.72;4963711;28;20444;-82
2021/10/06 15:45:15;;;;;;;;;;;;;;;2.72;98.68;100014.06;4964154;28;19923;-82
2021/10/06 15:47:41;;;;;;;;;;;;;;;2.76;98.69;100016.66;4967128;28;19918;-82
2021/10/06 15:50:07;;;;;;;;;;;;;;;2.76;97.91;100028.03;4966902;28;19964;-82
2021/10/06 15:52:33;;;;;;;;;;;;;;;2.72;97.97;100015.81;4966505;28;19922;-82
2021/10/06 15:54:58;;;;;;;;;;;;;;;2.59;98.01;100020.28;4966271;28;20144;-82
2021/10/06 15:57:23;;;;;;;;;;;;;;;2.59;98.36;100015.03;4966990;28;20345;-82
2021/10/06 15:59:49;;;;;;;;;;;;;;;2.52;97.58;100015.94;4965328;28;19969;-82
2021/10/06 16:02:15;;;;;;;;;;;;;;;2.58;97.30;100029.00;4966106;28;19919;-82
2021/10/06 16:04:41;;;;;;;;;;;;;;;2.54;97.36;100025.53;4966484;28;19929;-82
2021/10/06 16:07:07;;;;;;;;;;;;;;;2.51;97.10;100028.16;4966678;28;19922;-82
2021/10/06 16:09:32;;;;;;;;;;;;;;;2.56;96.98;100030.75;4966236;28;19973;-82
2021/10/06 16:11:57;;;;;;;;;;;;;;;2.50;96.50;100025.56;4966541;28;19964;-82
2021/10/06 16:14:23;;;;;;;;;;;;;;;2.45;96.29;100033.44;4965062;28;20385;-82
2021/10/06 16:16:48;;;;;;;;;;;;;;;2.41;95.87;100038.69;4965233;28;19922;-82
2021/10/06 16:19:13;;;;;;;;;;;;;;;2.36;95.78;100044.81;4964776;28;19919;-82
2021/10/06 16:21:39;;;;;;;;;;;;;;;2.26;95.95;100048.34;4966034;28;19919;-82
2021/10/06 16:24:04;;;;;;;;;;;;;;;2.40;95.53;100057.88;4966377;28;19918;-82
2021/10/06 16:26:32;;;;;;;;;;;;;;;2.28;95.66;100057.06;4966482;28;19931;-82
2021/10/06 16:28:57;;;;;;;;;;;;;;;2.35;95.41;100058.75;4964506;28;20378;-82
2021/10/06 16:31:22;;;;;;;;;;;;;;;2.38;95.36;100057.91;4964697;28;19925;-82
2021/10/06 16:33:48;;;;;;;;;;;;;;;2.18;94.83;100053.59;4965224;28;19922;-82
2021/10/06 16:36:13;;;;;;;;;;;;;;;2.23;94.51;100069.28;4965814;28;19925;-82
2021/10/06 16:38:38;;;;;;;;;;;;;;;2.22;94.77;100071.91;4965543;28;19922;-82
2021/10/06 16:41:04;;;;;;;;;;;;;;;2.23;94.75;100074.50;4965781;28;19925;-82
2021/10/06 16:43:29;;;;;;;;;;;;;;;2.22;94.39;100075.41;4964023;28;19973;-82
2021/10/06 16:45:55;;;;;;;;;;;;;;;2.23;94.38;100082.34;4965745;28;19965;-82
2021/10/06 16:48:21;;;;;;;;;;;;;;;2.16;94.16;100080.66;4965689;28;19922;-81
2021/10/06 16:50:48;;;;;;;;;;;;;;;2.18;94.32;100086.72;4965408;28;20333;-81
2021/10/06 16:53:13;;;;;;;;;;;;;;;2.20;94.19;100098.03;4965468;28;20369;-82
2021/10/06 16:55:40;;;;;;;;;;;;;;;2.20;94.31;100100.66;4964734;28;19945;-82
2021/10/06 16:58:05;;;;;;;;;;;;;;;2.22;93.54;100112.00;4965509;28;19981;-82
2021/10/06 17:00:31;;;;;;;;;;;;;;;2.17;93.29;100103.28;4963848;28;19934;-81
2021/10/06 17:02:56;;;;;;;;;;;;;;;2.19;93.25;100104.16;4965437;28;19922;-82
2021/10/06 17:05:21;;;;;;;;;;;;;;;2.20;93.38;100107.66;4965663;28;20016;-81
2021/10/06 17:07:47;;;;;;;;;;;;;;;2.18;92.67;100112.88;4965357;28;19914;-82
2021/10/06 17:10:12;;;;;;;;;;;;;;;2.16;92.61;100109.41;4965545;28;19927;-81
2021/10/06 17:12:37;;;;;;;;;;;;;;;2.22;92.78;100114.63;4965136;28;19925;-83
2021/10/06 17:15:03;;;;;;;;;;;;;;;2.13;92.21;100119.88;4963941;28;19924;-83
2021/10/06 17:17:28;;;;;;;;;;;;;;;2.13;91.83;100122.50;4965422;28;19922;-83
2021/10/06 17:19:53;;;;;;;;;;;;;;;2.06;91.71;100129.50;4965265;28;19941;-83
2021/10/06 17:22:19;;;;;;;;;;;;;;;2.09;91.20;100128.59;4964840;28;19973;-84
2021/10/06 17:24:44;;;;;;;;;;;;;;;2.11;92.39;100132.94;4964889;28;20039;-84
2021/10/06 17:27:10;;;;;;;;;;;;;;;2.11;91.53;100137.31;4964327;28;20247;-83
2021/10/06 17:29:35;;;;;;;;;;;;;;;2.15;91.39;100144.25;4963835;28;19993;-84
2021/10/06 17:32:00;;;;;;;;;;;;;;;2.17;91.39;100145.13;4964744;28;20347;-83
2021/10/06 17:34:26;;;;;;;;;;;;;;;2.10;90.83;100153.88;4964723;28;19933;-84
2021/10/06 17:36:51;;;;;;;;;;;;;;;2.18;91.67;100159.94;4965223;28;19925;-83
2021/10/06 17:39:16;;;;;;;;;;;;;;;2.19;91.19;100161.69;4965212;28;19918;-83
2021/10/06 17:41:42;;;;;;;;;;;;;;;2.11;90.95;100163.47;4964501;28;19962;-83
2021/10/06 17:44:08;;;;;;;;;;;;;;;2.17;90.39;100168.66;4963310;28;19918;-84
2021/10/06 17:46:34;;;;;;;;;;;;;;;2.09;90.44;100165.19;4965027;28;19946;-83
2021/10/06 17:49:02;;;;;;;;;;;;;;;2.12;90.67;100167.78;4964865;28;19918;-84
2021/10/06 17:51:27;;;;;;;;;;;;;;;2.10;90.37;100177.41;4964515;28;19957;-83
2021/10/06 17:53:52;;;;;;;;;;;;;;;2.09;89.96;100173.03;4964221;28;20193;-84
2021/10/06 17:56:18;;;;;;;;;;;;;;;2.06;89.72;100171.31;4962867;28;19922;-83
2021/10/06 17:58:43;;;;;;;;;;;;;;;2.16;90.03;100177.38;4962545;28;19918;-83
2021/10/06 18:01:08;;;;;;;;;;;;;;;2.20;90.21;100180.84;4964283;28;19926;-83
2021/10/06 18:03:34;;;;;;;;;;;;;;;2.13;89.64;100185.25;4964043;28;20388;-83
2021/10/06 18:05:59;;;;;;;;;;;;;;;2.18;90.61;100180.84;4962631;28;19918;-83
2021/10/06 18:08:24;;;;;;;;;;;;;;;2.20;89.84;100183.47;4964327;28;19922;-84
2021/10/06 18:10:49;;;;;;;;;;;;;;;2.25;90.18;100194.78;4964000;28;19922;-84
2021/10/06 18:13:15;;;;;;;;;;;;;;;2.21;89.43;100190.44;4963539;28;19923;-84
2021/10/06 18:15:41;;;;;;;;;;;;;;;2.21;89.36;100195.69;4962614;28;19918;-83
2021/10/06 18:18:07;;;;;;;;;;;;;;;2.23;89.38;100189.56;4978144;28;19929;-83
2021/10/06 18:20:32;;;;;;;;;;;;;;;2.17;89.02;100194.78;4963922;28;19918;-84
2021/10/06 18:22:57;;;;;;;;;;;;;;;2.09;88.65;100193.94;4963914;28;19918;-83
2021/10/06 18:25:23;;;;;;;;;;;;;;;2.25;89.84;100195.69;4964032;28;19958;-83
2021/10/06 18:27:48;;;;;;;;;;;;;;;2.94;92.60;100199.78;4963975;28;19976;-81
2021/10/06 18:30:13;;;;;;;;;;;;;;;2.58;91.07;100208.66;4962410;28;19922;-81
2021/10/06 18:32:39;;;;;;;;;;;;;;;2.51;90.94;100205.19;4963594;28;20399;-80
2021/10/06 18:35:05;;;;;;;;;;;;;;;2.48;91.40;100211.28;4964095;28;19925;-80
2021/10/06 18:37:31;;;;;;;;;;;;;;;2.50;89.87;100208.66;4963745;28;20489;-80
2021/10/06 18:39:57;;;;;;;;;;;;;;;2.43;89.23;100212.19;4963494;28;19925;-81
2021/10/06 18:42:22;;;;;;;;;;;;;;;2.50;89.79;100214.75;4963692;28;20290;-81
2021/10/06 18:44:47;;;;;;;;;;;;;;;2.38;88.57;100214.81;4962744;28;19977;-82
2021/10/06 18:47:13;;;;;;;;;;;;;;;2.48;89.13;100223.50;4963649;28;19919;-82
2021/10/06 18:49:38;;;;;;;;;;;;;;;2.47;88.34;100220.03;4963668;28;19923;-81
2021/10/06 18:52:03;;;;;;;;;;;;;;;2.35;87.91;100234.00;4963612;28;20005;-82
2021/10/06 18:54:30;;;;;;;;;;;;;;;2.41;89.07;100230.50;4964032;28;19922;-82
2021/10/06 18:56:55;;;;;;;;;;;;;;;2.43;87.70;100243.59;4962119;28;20325;-81
2021/10/06 18:59:20;;;;;;;;;;;;;;;2.40;88.22;100238.34;4961927;28;19919;-81
2021/10/06 19:01:46;;;;;;;;;;;;;;;2.41;87.21;100234.84;4963468;28;19922;-82
2021/10/06 19:04:11;;;;;;;;;;;;;;;2.47;88.01;100242.69;4963542;28;19924;-85
2021/10/06 19:06:37;;;;;;;;;;;;;;;2.68;89.90;100245.25;4963033;28;19954;-84